sensor_id;sensor_type;location;lat;lon;timestamp;P1;durP1;ratioP1;P2;durP2;ratioP2
77280;SDS011;66339;47.262;17.144;2023-03-01T04:56:08;5.85;;;4.30;;
77280;SDS011;66339;47.262;17.144;2023-03-01T05:01:50;6.82;;;4.87;;
77280;SDS011;66339;47.262;17.144;2023-03-01T05:04:23;6.65;;;4.55;;
77280;SDS011;66339;47.262;17.144;2023-03-01T05:07:04;7.87;;;4.72;;
77280;SDS011;66339;47.262;17.144;2023-03-01T05:09:35;6.32;;;4.43;;
77280;SDS011;66339;47.262;17.144;2023-03-01T05:12:10;8.73;;;4.32;;
77280;SDS011;66339;47.262;17.144;2023-03-01T05:14:42;9.75;;;4.68;;
77280;SDS011;66339;47.262;17.144;2023-03-01T05:17:15;9.55;;;4.60;;
77280;SDS011;66339;47.262;17.144;2023-03-01T05:19:48;16.80;;;5.43;;
77280;SDS011;66339;47.262;17.144;2023-03-01T05:22:22;14.80;;;4.90;;
77280;SDS011;66339;47.262;17.144;2023-03-01T05:24:57;18.70;;;6.60;;
77280;SDS011;66339;47.262;17.144;2023-03-01T05:27:32;36.63;;;7.20;;
77280;SDS011;66339;47.262;17.144;2023-03-01T05:30:05;28.15;;;7.25;;
77280;SDS011;66339;47.262;17.144;2023-03-01T05:32:36;39.85;;;8.50;;
77280;SDS011;66339;47.262;17.144;2023-03-01T05:35:14;42.67;;;7.95;;
77280;SDS011;66339;47.262;17.144;2023-03-01T05:37:46;43.33;;;9.30;;
77280;SDS011;66339;47.262;17.144;2023-03-01T05:40:20;53.53;;;10.13;;
77280;SDS011;66339;47.262;17.144;2023-03-01T05:58:33;52.20;;;9.32;;
77280;SDS011;66339;47.262;17.144;2023-03-01T06:01:01;51.70;;;9.60;;
77280;SDS011;66339;47.262;17.144;2023-03-01T06:03:34;89.95;;;16.02;;
77280;SDS011;66339;47.262;17.144;2023-03-01T06:18:35;80.60;;;13.82;;
77280;SDS011;66339;47.262;17.144;2023-03-01T06:21:06;80.10;;;13.05;;
77280;SDS011;66339;47.262;17.144;2023-03-01T06:26:47;78.10;;;13.60;;
77280;SDS011;66339;47.262;17.144;2023-03-01T06:32:14;97.03;;;15.57;;
77280;SDS011;66339;47.262;17.144;2023-03-01T06:47:12;359.97;;;48.00;;
77280;SDS011;66339;47.262;17.144;2023-03-01T06:49:46;349.23;;;49.17;;
77280;SDS011;66339;47.262;17.144;2023-03-01T07:14:32;524.33;;;82.15;;
77280;SDS011;66339;47.262;17.144;2023-03-01T07:33:10;842.47;;;160.82;;
77280;SDS011;66339;47.262;17.144;2023-03-01T07:35:37;580.63;;;102.97;;
77280;SDS011;66339;47.262;17.144;2023-03-01T07:38:08;495.88;;;86.05;;
77280;SDS011;66339;47.262;17.144;2023-03-01T07:40:38;611.55;;;107.35;;
77280;SDS011;66339;47.262;17.144;2023-03-01T07:43:09;702.95;;;127.72;;
77280;SDS011;66339;47.262;17.144;2023-03-01T07:45:39;632.25;;;114.85;;
77280;SDS011;66339;47.262;17.144;2023-03-01T07:48:21;640.28;;;121.03;;
77280;SDS011;66339;47.262;17.144;2023-03-01T07:50:58;597.25;;;108.78;;
77280;SDS011;66339;47.262;17.144;2023-03-01T07:53:34;667.92;;;123.57;;
77280;SDS011;66339;47.262;17.144;2023-03-01T08:12:25;518.67;;;90.25;;
77280;SDS011;66339;47.262;17.144;2023-03-01T08:27:21;444.02;;;77.20;;
77280;SDS011;66339;47.262;17.144;2023-03-01T09:39:48;233.43;;;38.63;;
77280;SDS011;66339;47.262;17.144;2023-03-01T09:45:40;212.65;;;36.00;;
77280;SDS011;66339;47.262;17.144;2023-03-01T10:22:32;180.82;;;31.58;;
77280;SDS011;66339;47.262;17.144;2023-03-01T10:31:26;147.55;;;29.33;;
77280;SDS011;66339;47.262;17.144;2023-03-01T10:34:11;141.18;;;28.08;;
77280;SDS011;66339;47.262;17.144;2023-03-01T10:36:44;147.75;;;27.23;;
77280;SDS011;66339;47.262;17.144;2023-03-01T10:39:19;160.40;;;29.83;;
77280;SDS011;66339;47.262;17.144;2023-03-01T10:41:53;181.57;;;32.50;;
77280;SDS011;66339;47.262;17.144;2023-03-01T10:44:43;258.48;;;43.83;;
77280;SDS011;66339;47.262;17.144;2023-03-01T10:47:20;192.25;;;34.00;;
77280;SDS011;66339;47.262;17.144;2023-03-01T10:50:03;171.52;;;30.62;;
77280;SDS011;66339;47.262;17.144;2023-03-01T10:58:38;175.65;;;32.00;;
77280;SDS011;66339;47.262;17.144;2023-03-01T11:01:29;171.32;;;33.40;;
77280;SDS011;66339;47.262;17.144;2023-03-01T11:06:39;162.18;;;30.55;;
77280;SDS011;66339;47.262;17.144;2023-03-01T11:09:24;148.45;;;29.45;;
77280;SDS011;66339;47.262;17.144;2023-03-01T11:12:15;140.75;;;28.77;;
77280;SDS011;66339;47.262;17.144;2023-03-01T11:14:48;148.35;;;29.02;;
77280;SDS011;66339;47.262;17.144;2023-03-01T11:17:28;141.55;;;26.02;;
77280;SDS011;66339;47.262;17.144;2023-03-01T11:25:55;162.10;;;30.30;;
77280;SDS011;66339;47.262;17.144;2023-03-01T11:28:28;145.15;;;27.15;;
77280;SDS011;66339;47.262;17.144;2023-03-01T11:31:01;122.28;;;25.62;;
77280;SDS011;66339;47.262;17.144;2023-03-01T12:06:01;94.82;;;20.50;;
77280;SDS011;66339;47.262;17.144;2023-03-01T12:20:47;89.05;;;18.77;;
77280;SDS011;66339;47.262;17.144;2023-03-01T12:26:16;89.65;;;18.48;;
77280;SDS011;66339;47.262;17.144;2023-03-01T12:37:51;71.93;;;16.83;;
77280;SDS011;66339;47.262;17.144;2023-03-01T12:40:52;63.30;;;15.80;;
77280;SDS011;66339;47.262;17.144;2023-03-01T12:55:35;66.15;;;16.00;;
77280;SDS011;66339;47.262;17.144;2023-03-01T13:01:40;56.95;;;14.43;;
77280;SDS011;66339;47.262;17.144;2023-03-01T13:04:18;57.42;;;14.10;;
77280;SDS011;66339;47.262;17.144;2023-03-01T13:22:00;50.92;;;13.00;;
77280;SDS011;66339;47.262;17.144;2023-03-01T13:37:13;44.55;;;12.18;;
77280;SDS011;66339;47.262;17.144;2023-03-01T13:39:51;48.83;;;12.35;;
77280;SDS011;66339;47.262;17.144;2023-03-01T13:45:32;42.67;;;11.12;;
77280;SDS011;66339;47.262;17.144;2023-03-01T13:48:24;41.75;;;12.68;;
77280;SDS011;66339;47.262;17.144;2023-03-01T13:50:58;49.35;;;12.32;;
77280;SDS011;66339;47.262;17.144;2023-03-01T13:53:38;43.70;;;11.35;;
77280;SDS011;66339;47.262;17.144;2023-03-01T13:56:15;38.87;;;11.93;;
77280;SDS011;66339;47.262;17.144;2023-03-01T13:59:25;31.30;;;9.23;;
77280;SDS011;66339;47.262;17.144;2023-03-01T14:02:00;38.25;;;10.23;;
77280;SDS011;66339;47.262;17.144;2023-03-01T14:04:36;31.65;;;9.98;;
77280;SDS011;66339;47.262;17.144;2023-03-01T14:10:42;37.00;;;10.88;;
77280;SDS011;66339;47.262;17.144;2023-03-01T14:22:54;29.65;;;8.45;;
77280;SDS011;66339;47.262;17.144;2023-03-01T14:25:35;34.77;;;10.00;;
77280;SDS011;66339;47.262;17.144;2023-03-01T14:34:20;31.27;;;10.13;;
77280;SDS011;66339;47.262;17.144;2023-03-01T14:49:40;29.23;;;8.68;;
77280;SDS011;66339;47.262;17.144;2023-03-01T14:52:20;29.23;;;8.50;;
77280;SDS011;66339;47.262;17.144;2023-03-01T14:54:53;29.85;;;8.30;;
77280;SDS011;66339;47.262;17.144;2023-03-01T14:57:23;28.65;;;8.38;;
77280;SDS011;66339;47.262;17.144;2023-03-01T14:59:57;25.48;;;7.55;;
77280;SDS011;66339;47.262;17.144;2023-03-01T15:02:35;32.88;;;9.32;;
77280;SDS011;66339;47.262;17.144;2023-03-01T15:05:08;35.42;;;10.77;;
77280;SDS011;66339;47.262;17.144;2023-03-01T15:11:17;27.97;;;9.30;;
77280;SDS011;66339;47.262;17.144;2023-03-01T15:16:30;26.37;;;8.50;;
77280;SDS011;66339;47.262;17.144;2023-03-01T15:36:55;29.95;;;7.97;;
77280;SDS011;66339;47.262;17.144;2023-03-01T15:39:41;25.30;;;7.60;;
77280;SDS011;66339;47.262;17.144;2023-03-01T15:48:28;22.50;;;7.20;;
77280;SDS011;66339;47.262;17.144;2023-03-01T15:57:28;30.27;;;7.97;;
77280;SDS011;66339;47.262;17.144;2023-03-01T16:03:24;24.20;;;7.70;;
77280;SDS011;66339;47.262;17.144;2023-03-01T16:05:58;24.63;;;7.80;;
77280;SDS011;66339;47.262;17.144;2023-03-01T16:08:28;23.33;;;7.57;;
77280;SDS011;66339;47.262;17.144;2023-03-01T16:11:03;25.62;;;8.10;;
77280;SDS011;66339;47.262;17.144;2023-03-01T16:13:31;33.58;;;8.75;;
77280;SDS011;66339;47.262;17.144;2023-03-01T16:21:28;22.55;;;6.57;;
77280;SDS011;66339;47.262;17.144;2023-03-01T16:26:37;21.35;;;7.32;;
77280;SDS011;66339;47.262;17.144;2023-03-01T16:34:28;20.50;;;7.18;;
77280;SDS011;66339;47.262;17.144;2023-03-01T16:36:59;22.20;;;7.15;;
77280;SDS011;66339;47.262;17.144;2023-03-01T16:42:13;18.65;;;6.57;;
77280;SDS011;66339;47.262;17.144;2023-03-01T16:52:56;20.23;;;7.12;;
77280;SDS011;66339;47.262;17.144;2023-03-01T17:01:37;19.58;;;6.85;;
77280;SDS011;66339;47.262;17.144;2023-03-01T17:04:08;17.45;;;6.85;;
77280;SDS011;66339;47.262;17.144;2023-03-01T17:45:14;24.70;;;7.28;;
77280;SDS011;66339;47.262;17.144;2023-03-01T17:53:36;17.35;;;6.93;;
77280;SDS011;66339;47.262;17.144;2023-03-01T18:01:59;17.17;;;6.53;;
77280;SDS011;66339;47.262;17.144;2023-03-01T18:04:33;30.52;;;6.57;;
77280;SDS011;66339;47.262;17.144;2023-03-01T18:09:35;22.65;;;6.25;;
77280;SDS011;66339;47.262;17.144;2023-03-01T18:12:05;21.48;;;6.22;;
77280;SDS011;66339;47.262;17.144;2023-03-01T18:14:35;17.25;;;5.93;;
77280;SDS011;66339;47.262;17.144;2023-03-01T18:17:05;18.70;;;5.82;;
77280;SDS011;66339;47.262;17.144;2023-03-01T18:19:39;22.37;;;6.15;;
77280;SDS011;66339;47.262;17.144;2023-03-01T18:22:07;25.10;;;6.30;;
77280;SDS011;66339;47.262;17.144;2023-03-01T18:24:35;14.05;;;5.97;;
77280;SDS011;66339;47.262;17.144;2023-03-01T18:27:03;15.57;;;5.53;;
77280;SDS011;66339;47.262;17.144;2023-03-01T18:29:34;17.05;;;5.20;;
77280;SDS011;66339;47.262;17.144;2023-03-01T18:32:03;16.27;;;5.20;;
77280;SDS011;66339;47.262;17.144;2023-03-01T18:34:33;17.73;;;5.20;;
77280;SDS011;66339;47.262;17.144;2023-03-01T18:37:03;13.18;;;5.03;;
77280;SDS011;66339;47.262;17.144;2023-03-01T18:39:35;14.10;;;5.30;;
77280;SDS011;66339;47.262;17.144;2023-03-01T18:42:06;13.93;;;5.12;;
77280;SDS011;66339;47.262;17.144;2023-03-01T18:44:33;14.27;;;5.45;;
77280;SDS011;66339;47.262;17.144;2023-03-01T18:47:08;11.93;;;4.75;;
77280;SDS011;66339;47.262;17.144;2023-03-01T18:49:41;12.18;;;4.68;;
77280;SDS011;66339;47.262;17.144;2023-03-01T18:52:12;12.30;;;5.22;;
77280;SDS011;66339;47.262;17.144;2023-03-01T18:54:45;12.52;;;5.03;;
77280;SDS011;66339;47.262;17.144;2023-03-01T18:57:19;12.98;;;5.10;;
77280;SDS011;66339;47.262;17.144;2023-03-01T18:59:49;12.07;;;4.47;;
77280;SDS011;66339;47.262;17.144;2023-03-01T19:10:28;13.40;;;4.65;;
77280;SDS011;66339;47.262;17.144;2023-03-01T19:13:01;11.45;;;4.57;;
77280;SDS011;66339;47.262;17.144;2023-03-01T19:15:34;16.52;;;4.95;;
77280;SDS011;66339;47.262;17.144;2023-03-01T19:18:06;11.10;;;4.70;;
77280;SDS011;66339;47.262;17.144;2023-03-01T19:21:03;20.67;;;5.22;;
77280;SDS011;66339;47.262;17.144;2023-03-01T19:23:37;17.33;;;4.90;;
77280;SDS011;66339;47.262;17.144;2023-03-01T19:26:09;16.17;;;5.47;;
77280;SDS011;66339;47.262;17.144;2023-03-01T19:28:38;12.32;;;4.75;;
77280;SDS011;66339;47.262;17.144;2023-03-01T19:31:12;10.52;;;4.43;;
77280;SDS011;66339;47.262;17.144;2023-03-01T19:36:48;13.55;;;4.62;;
77280;SDS011;66339;47.262;17.144;2023-03-01T19:39:22;12.88;;;5.03;;
77280;SDS011;66339;47.262;17.144;2023-03-01T19:41:49;12.63;;;4.93;;
77280;SDS011;66339;47.262;17.144;2023-03-01T19:44:21;11.75;;;4.72;;
77280;SDS011;66339;47.262;17.144;2023-03-01T19:46:48;12.02;;;4.78;;
77280;SDS011;66339;47.262;17.144;2023-03-01T19:49:18;14.43;;;4.82;;
77280;SDS011;66339;47.262;17.144;2023-03-01T19:51:46;8.13;;;4.28;;
77280;SDS011;66339;47.262;17.144;2023-03-01T19:54:19;11.95;;;4.93;;
77280;SDS011;66339;47.262;17.144;2023-03-01T19:59:35;9.18;;;4.30;;
77280;SDS011;66339;47.262;17.144;2023-03-01T20:05:22;14.50;;;3.97;;
77280;SDS011;66339;47.262;17.144;2023-03-01T20:07:50;11.05;;;3.90;;
77280;SDS011;66339;47.262;17.144;2023-03-01T20:10:23;7.95;;;4.37;;
77280;SDS011;66339;47.262;17.144;2023-03-01T20:12:51;13.38;;;4.68;;
77280;SDS011;66339;47.262;17.144;2023-03-01T20:15:18;8.85;;;4.18;;
77280;SDS011;66339;47.262;17.144;2023-03-01T20:17:48;11.32;;;4.12;;
77280;SDS011;66339;47.262;17.144;2023-03-01T20:26:14;10.25;;;4.53;;
77280;SDS011;66339;47.262;17.144;2023-03-01T20:28:44;13.40;;;4.35;;
77280;SDS011;66339;47.262;17.144;2023-03-01T20:31:24;9.70;;;4.30;;
77280;SDS011;66339;47.262;17.144;2023-03-01T20:33:53;7.43;;;4.18;;
77280;SDS011;66339;47.262;17.144;2023-03-01T20:36:27;8.27;;;3.80;;
77280;SDS011;66339;47.262;17.144;2023-03-01T20:38:55;8.25;;;4.35;;
77280;SDS011;66339;47.262;17.144;2023-03-01T20:41:29;6.60;;;4.32;;
77280;SDS011;66339;47.262;17.144;2023-03-01T20:44:01;7.18;;;3.92;;
77280;SDS011;66339;47.262;17.144;2023-03-01T20:49:02;6.78;;;4.12;;
77280;SDS011;66339;47.262;17.144;2023-03-01T20:51:35;8.30;;;4.30;;
77280;SDS011;66339;47.262;17.144;2023-03-01T20:54:03;8.15;;;4.45;;
77280;SDS011;66339;47.262;17.144;2023-03-01T20:56:30;8.95;;;4.70;;
77280;SDS011;66339;47.262;17.144;2023-03-01T20:59:12;9.05;;;4.20;;
77280;SDS011;66339;47.262;17.144;2023-03-01T21:01:46;9.75;;;4.50;;
77280;SDS011;66339;47.262;17.144;2023-03-01T21:04:20;6.55;;;4.45;;
77280;SDS011;66339;47.262;17.144;2023-03-01T21:06:55;6.65;;;4.35;;
77280;SDS011;66339;47.262;17.144;2023-03-01T21:09:28;9.35;;;4.18;;
77280;SDS011;66339;47.262;17.144;2023-03-01T21:12:13;9.57;;;3.87;;
77280;SDS011;66339;47.262;17.144;2023-03-01T21:14:43;9.40;;;3.97;;
77280;SDS011;66339;47.262;17.144;2023-03-01T21:17:15;8.15;;;3.87;;
77280;SDS011;66339;47.262;17.144;2023-03-01T21:19:47;8.40;;;4.30;;
77280;SDS011;66339;47.262;17.144;2023-03-01T21:22:16;7.57;;;4.25;;
77280;SDS011;66339;47.262;17.144;2023-03-01T21:24:49;6.80;;;4.00;;
77280;SDS011;66339;47.262;17.144;2023-03-01T21:27:17;11.85;;;4.32;;
77280;SDS011;66339;47.262;17.144;2023-03-01T21:29:53;8.63;;;4.35;;
77280;SDS011;66339;47.262;17.144;2023-03-01T21:32:23;7.18;;;4.15;;
77280;SDS011;66339;47.262;17.144;2023-03-01T21:34:52;9.88;;;4.47;;
77280;SDS011;66339;47.262;17.144;2023-03-01T21:37:22;8.70;;;4.30;;
77280;SDS011;66339;47.262;17.144;2023-03-01T21:39:50;6.57;;;4.20;;
77280;SDS011;66339;47.262;17.144;2023-03-01T21:42:23;6.05;;;3.72;;
77280;SDS011;66339;47.262;17.144;2023-03-01T21:44:57;7.70;;;4.05;;
77280;SDS011;66339;47.262;17.144;2023-03-01T21:47:31;7.90;;;3.85;;
77280;SDS011;66339;47.262;17.144;2023-03-01T21:50:09;9.88;;;3.95;;
77280;SDS011;66339;47.262;17.144;2023-03-01T21:52:40;6.95;;;4.03;;
77280;SDS011;66339;47.262;17.144;2023-03-01T21:55:16;9.30;;;4.37;;
77280;SDS011;66339;47.262;17.144;2023-03-01T21:57:49;8.60;;;4.30;;
77280;SDS011;66339;47.262;17.144;2023-03-01T22:00:19;9.50;;;4.22;;
77280;SDS011;66339;47.262;17.144;2023-03-01T22:02:47;6.12;;;3.95;;
77280;SDS011;66339;47.262;17.144;2023-03-01T22:05:18;8.10;;;3.67;;
77280;SDS011;66339;47.262;17.144;2023-03-01T22:07:47;7.72;;;3.90;;
77280;SDS011;66339;47.262;17.144;2023-03-01T22:10:19;7.65;;;4.00;;
77280;SDS011;66339;47.262;17.144;2023-03-01T22:12:54;7.32;;;4.05;;
77280;SDS011;66339;47.262;17.144;2023-03-01T22:15:31;7.45;;;4.03;;
77280;SDS011;66339;47.262;17.144;2023-03-01T22:23:08;9.00;;;4.10;;
77280;SDS011;66339;47.262;17.144;2023-03-01T22:25:43;6.37;;;4.28;;
77280;SDS011;66339;47.262;17.144;2023-03-01T22:30:53;6.97;;;3.97;;
77280;SDS011;66339;47.262;17.144;2023-03-01T22:33:22;6.47;;;4.20;;
77280;SDS011;66339;47.262;17.144;2023-03-01T22:35:49;6.30;;;3.97;;
77280;SDS011;66339;47.262;17.144;2023-03-01T22:38:23;8.40;;;4.30;;
77280;SDS011;66339;47.262;17.144;2023-03-01T22:41:00;7.20;;;4.10;;
77280;SDS011;66339;47.262;17.144;2023-03-01T22:43:33;8.10;;;3.95;;
77280;SDS011;66339;47.262;17.144;2023-03-01T22:48:44;9.50;;;3.92;;
77280;SDS011;66339;47.262;17.144;2023-03-01T22:51:16;8.05;;;3.87;;
77280;SDS011;66339;47.262;17.144;2023-03-01T22:53:48;7.00;;;3.90;;
77280;SDS011;66339;47.262;17.144;2023-03-01T22:56:22;5.60;;;3.83;;
77280;SDS011;66339;47.262;17.144;2023-03-01T22:58:52;7.53;;;4.07;;
77280;SDS011;66339;47.262;17.144;2023-03-01T23:01:27;9.65;;;4.10;;
77280;SDS011;66339;47.262;17.144;2023-03-01T23:03:57;7.45;;;4.30;;
77280;SDS011;66339;47.262;17.144;2023-03-01T23:06:31;7.90;;;4.72;;
77280;SDS011;66339;47.262;17.144;2023-03-01T23:09:01;5.15;;;3.83;;
77280;SDS011;66339;47.262;17.144;2023-03-01T23:11:32;6.12;;;4.20;;
77280;SDS011;66339;47.262;17.144;2023-03-01T23:14:04;6.97;;;4.10;;
77280;SDS011;66339;47.262;17.144;2023-03-01T23:16:40;7.05;;;4.07;;
77280;SDS011;66339;47.262;17.144;2023-03-01T23:19:11;7.47;;;4.50;;
77280;SDS011;66339;47.262;17.144;2023-03-01T23:21:42;5.93;;;4.10;;
77280;SDS011;66339;47.262;17.144;2023-03-01T23:24:19;8.15;;;4.57;;
77280;SDS011;66339;47.262;17.144;2023-03-01T23:26:53;6.62;;;4.03;;
77280;SDS011;66339;47.262;17.144;2023-03-01T23:29:31;7.82;;;3.90;;
77280;SDS011;66339;47.262;17.144;2023-03-01T23:31:59;5.72;;;3.70;;
77280;SDS011;66339;47.262;17.144;2023-03-01T23:34:32;5.62;;;4.12;;
77280;SDS011;66339;47.262;17.144;2023-03-01T23:37:02;7.40;;;3.90;;
77280;SDS011;66339;47.262;17.144;2023-03-01T23:39:40;7.12;;;4.18;;
77280;SDS011;66339;47.262;17.144;2023-03-01T23:42:09;6.75;;;4.12;;
77280;SDS011;66339;47.262;17.144;2023-03-01T23:44:38;6.50;;;3.90;;
77280;SDS011;66339;47.262;17.144;2023-03-01T23:47:11;5.45;;;3.75;;
77280;SDS011;66339;47.262;17.144;2023-03-01T23:49:44;5.72;;;3.83;;
77280;SDS011;66339;47.262;17.144;2023-03-01T23:52:13;6.05;;;4.37;;
77280;SDS011;66339;47.262;17.144;2023-03-01T23:54:40;7.68;;;4.28;;
77280;SDS011;66339;47.262;17.144;2023-03-01T23:57:12;7.35;;;4.18;;
77280;SDS011;66339;47.262;17.144;2023-03-01T23:59:42;6.97;;;4.17;;
